Time,TemperatureF,DewpointF,PressureIn,WindDirection,WindDirectionDegrees,WindSpeedMPH,WindSpeedGustMPH,Humidity,HourlyPrecipIn,Conditions,Clouds,dailyrainin,SolarRadiationWatts/m^2,SoftwareType,DateUTC
2013-03-12 00:00:00,50.2,46.8,30.15,SSW,207,0.0,2.0,88,0.00,,,0.00,0002,Weather View 32 v70,2013-03-12 07:00:00,
2013-03-12 00:05:00,50.0,46.6,30.15,SSW,207,0.0,2.0,88,0.00,,,0.00,0002,Weather View 32 v70,2013-03-12 07:05:00,
2013-03-12 00:10:00,49.8,46.7,30.15,SSW,207,0.0,2.0,89,0.00,,,0.00,0001,Weather View 32 v70,2013-03-12 07:10:00,
2013-03-12 00:15:00,49.6,46.5,30.15,SSW,207,0.0,2.0,89,0.00,,,0.00,0001,Weather View 32 v70,2013-03-12 07:15:00,
2013-03-12 00:20:00,49.4,46.6,30.15,WSW,252,0.0,2.0,90,0.00,,,0.00,0002,Weather View 32 v70,2013-03-12 07:20:00,
2013-03-12 00:25:00,49.3,46.5,30.15,NW,319,0.0,2.0,90,0.00,,,0.00,0002,Weather View 32 v70,2013-03-12 07:25:00,
2013-03-12 00:30:00,49.3,46.8,30.15,WSW,252,0.0,1.0,91,0.00,,,0.00,0001,Weather View 32 v70,2013-03-12 07:30:00,
2013-03-12 00:35:00,49.1,46.6,30.15,SW,229,0.0,1.0,91,0.00,,,0.00,0002,Weather View 32 v70,2013-03-12 07:35:00,
2013-03-12 00:40:00,48.8,46.3,30.15,SSW,207,0.0,1.0,91,0.00,,,0.00,0002,Weather View 32 v70,2013-03-12 07:40:00,
2013-03-12 00:45:00,48.6,46.1,30.15,SSW,207,0.0,1.0,91,0.00,,,0.00,0001,Weather View 32 v70,2013-03-12 07:45:00,
2013-03-12 00:50:00,48.6,46.4,30.15,SSW,207,0.0,1.0,92,0.00,,,0.00,0001,Weather View 32 v70,2013-03-12 07:50:00,
2013-03-12 01:00:00,48.5,46.6,30.15,SW,229,0.0,0.0,93,0.00,,,0.00,0001,Weather View 32 v70,2013-03-12 08:00:00,
2013-03-12 01:05:00,48.5,46.6,30.15,West,274,0.0,0.0,93,0.00,,,0.00,0001,Weather View 32 v70,2013-03-12 08:05:00,
2013-03-12 01:15:00,48.2,46.6,30.15,ESE,117,0.0,0.0,94,0.00,,,0.00,0001,Weather View 32 v70,2013-03-12 08:15:00,
2013-03-12 01:20:00,47.9,46.3,30.15,SSE,162,0.0,0.0,94,0.00,,,0.00,0002,Weather View 32 v70,2013-03-12 08:20:00,
2013-03-12 01:25:00,47.6,46.2,30.15,SSE,162,0.0,0.0,95,0.00,,,0.00,0001,Weather View 32 v70,2013-03-12 08:25:00,
2013-03-12 01:30:00,47.5,46.4,30.16,SW,229,0.0,0.0,96,0.00,,,0.00,0002,Weather View 32 v70,2013-03-12 08:30:00,
2013-03-12 01:35:00,47.5,46.4,30.16,SW,229,0.0,0.0,96,0.00,,,0.00,0001,Weather View 32 v70,2013-03-12 08:35:00,
2013-03-12 01:40:00,47.5,46.7,30.16,SW,229,0.0,0.0,97,0.00,,,0.00,0001,Weather View 32 v70,2013-03-12 08:40:00,
2013-03-12 01:45:00,47.5,46.7,30.16,SW,229,0.0,0.0,97,0.00,,,0.00,0001,Weather View 32 v70,2013-03-12 08:45:00,
2013-03-12 01:50:00,47.4,46.6,30.16,SW,229,0.0,0.0,97,0.00,,,0.00,0002,Weather View 32 v70,2013-03-12 08:50:00,
2013-03-12 01:55:00,47.4,46.9,30.16,SW,229,0.0,0.0,98,0.00,,,0.00,0002,Weather View 32 v70,2013-03-12 08:55:00,
2013-03-12 02:00:00,47.4,46.9,30.16,SW,229,0.0,0.0,98,0.00,,,0.00,0001,Weather View 32 v70,2013-03-12 09:00:00,
2013-03-12 02:05:00,47.3,46.8,30.16,SW,229,0.0,0.0,98,0.00,,,0.00,0001,Weather View 32 v70,2013-03-12 09:05:00,
2013-03-12 02:10:00,47.3,46.8,30.16,SSW,207,0.0,0.0,98,0.00,,,0.00,0001,Weather View 32 v70,2013-03-12 09:10:00,
2013-03-12 02:15:00,47.2,46.7,30.16,South,184,0.0,0.0,98,0.00,,,0.00,0001,Weather View 32 v70,2013-03-12 09:15:00,
2013-03-12 02:20:00,47.0,46.7,30.16,SSE,162,0.0,0.0,99,0.00,,,0.00,0001,Weather View 32 v70,2013-03-12 09:20:00,
2013-03-12 02:25:00,46.8,46.5,30.16,SW,229,0.0,0.0,99,0.00,,,0.00,0001,Weather View 32 v70,2013-03-12 09:25:00,
2013-03-12 02:35:00,46.7,46.4,30.16,SE,139,0.0,0.0,99,0.00,,,0.00,0001,Weather View 32 v70,2013-03-12 09:35:00,
2013-03-12 02:40:00,46.4,46.1,30.16,ESE,117,0.0,0.0,99,0.00,,,0.00,0001,Weather View 32 v70,2013-03-12 09:40:00,
2013-03-12 02:45:00,46.2,46.2,30.17,South,184,0.0,0.0,100,0.00,,,0.00,0002,Weather View 32 v70,2013-03-12 09:45:00,
2013-03-12 02:50:00,46.2,46.2,30.16,SSW,207,0.0,0.0,100,0.00,,,0.00,0001,Weather View 32 v70,2013-03-12 09:50:00,
2013-03-12 02:55:00,46.1,46.1,30.16,South,184,0.0,0.0,100,0.00,,,0.00,0001,Weather View 32 v70,2013-03-12 09:55:00,
2013-03-12 03:00:00,46.0,46.0,30.16,South,184,0.0,0.0,100,0.00,,,0.00,0001,Weather View 32 v70,2013-03-12 10:00:00,
2013-03-12 03:05:00,45.9,45.9,30.16,South,184,0.0,0.0,100,0.00,,,0.00,0002,Weather View 32 v70,2013-03-12 10:05:00,
2013-03-12 03:10:00,45.8,45.8,30.16,South,184,0.0,0.0,100,0.00,,,0.00,0001,Weather View 32 v70,2013-03-12 10:10:00,
2013-03-12 03:15:00,45.7,45.7,30.16,SE,139,0.0,0.0,100,0.00,,,0.00,0001,Weather View 32 v70,2013-03-12 10:15:00,
2013-03-12 03:20:00,45.4,45.4,30.16,SE,139,0.0,0.0,100,0.00,,,0.00,0001,Weather View 32 v70,2013-03-12 10:20:00,
2013-03-12 03:25:00,45.4,45.4,30.16,South,184,0.0,0.0,100,0.00,,,0.00,0002,Weather View 32 v70,2013-03-12 10:25:00,
2013-03-12 03:30:00,45.4,45.4,30.15,SSW,207,0.0,0.0,100,0.00,,,0.00,0001,Weather View 32 v70,2013-03-12 10:30:00,
2013-03-12 03:40:00,45.5,45.5,30.15,WNW,297,0.0,0.0,100,0.00,,,0.00,0001,Weather View 32 v70,2013-03-12 10:40:00,
2013-03-12 03:45:00,45.4,45.4,30.15,NW,319,0.0,0.0,100,0.00,,,0.00,0001,Weather View 32 v70,2013-03-12 10:45:00,
2013-03-12 03:50:00,45.3,45.3,30.15,ESE,117,0.0,0.0,100,0.00,,,0.00,0001,Weather View 32 v70,2013-03-12 10:50:00,
2013-03-12 03:55:00,45.1,45.1,30.15,SE,139,0.0,0.0,100,0.00,,,0.00,0001,Weather View 32 v70,2013-03-12 10:55:00,
2013-03-12 04:00:00,44.9,44.9,30.15,West,274,0.0,0.0,100,0.00,,,0.00,0001,Weather View 32 v70,2013-03-12 11:00:00,
2013-03-12 04:05:00,44.8,44.8,30.15,West,274,0.0,0.0,100,0.00,,,0.00,0001,Weather View 32 v70,2013-03-12 11:05:00,
2013-03-12 04:10:00,44.8,44.8,30.15,SE,139,0.0,0.0,100,0.00,,,0.00,0002,Weather View 32 v70,2013-03-12 11:10:00,
2013-03-12 04:15:00,44.7,44.7,30.15,SE,139,0.0,0.0,100,0.00,,,0.00,0001,Weather View 32 v70,2013-03-12 11:15:00,
2013-03-12 04:20:00,44.6,44.6,30.15,SSE,162,0.0,0.0,100,0.00,,,0.00,0001,Weather View 32 v70,2013-03-12 11:20:00,
2013-03-12 04:25:00,44.4,44.4,30.15,SSW,207,0.0,0.0,100,0.00,,,0.00,0002,Weather View 32 v70,2013-03-12 11:25:00,
2013-03-12 04:30:00,44.3,44.3,30.15,South,184,0.0,0.0,100,0.00,,,0.00,0001,Weather View 32 v70,2013-03-12 11:30:00,
2013-03-12 04:40:00,44.4,44.4,30.15,SSE,162,0.0,0.0,100,0.00,,,0.00,0001,Weather View 32 v70,2013-03-12 11:40:00,
2013-03-12 04:45:00,44.4,44.4,30.15,West,274,0.0,0.0,100,0.00,,,0.00,0001,Weather View 32 v70,2013-03-12 11:45:00,
2013-03-12 04:50:00,44.4,44.4,30.15,WNW,297,0.0,0.0,100,0.00,,,0.00,0001,Weather View 32 v70,2013-03-12 11:50:00,
2013-03-12 05:00:00,44.3,44.3,30.15,SW,229,0.0,0.0,100,0.00,,,0.00,0001,Weather View 32 v70,2013-03-12 12:00:00,
2013-03-12 05:05:00,44.1,44.1,30.15,SW,229,0.0,0.0,100,0.00,,,0.00,0001,Weather View 32 v70,2013-03-12 12:05:00,
2013-03-12 05:10:00,44.0,44.0,30.15,SSW,207,0.0,0.0,100,0.00,,,0.00,0001,Weather View 32 v70,2013-03-12 12:10:00,
2013-03-12 05:15:00,44.1,44.1,30.15,South,184,0.0,0.0,100,0.00,,,0.00,0002,Weather View 32 v70,2013-03-12 12:15:00,
2013-03-12 05:20:00,44.2,44.2,30.15,South,184,0.0,0.0,100,0.00,,,0.00,0001,Weather View 32 v70,2013-03-12 12:20:00,
2013-03-12 05:25:00,44.3,44.3,30.15,South,184,0.0,0.0,100,0.00,,,0.00,0001,Weather View 32 v70,2013-03-12 12:25:00,
2013-03-12 05:30:00,44.2,44.2,30.15,South,184,0.0,0.0,100,0.00,,,0.00,0001,Weather View 32 v70,2013-03-12 12:30:00,
2013-03-12 05:35:00,44.1,44.1,30.15,SSW,207,0.0,0.0,100,0.00,,,0.00,0001,Weather View 32 v70,2013-03-12 12:35:00,
2013-03-12 05:40:00,44.0,44.0,30.15,South,184,0.0,0.0,100,0.00,,,0.00,0001,Weather View 32 v70,2013-03-12 12:40:00,
2013-03-12 05:45:00,44.0,44.0,30.15,South,184,0.0,0.0,100,0.00,,,0.00,0001,Weather View 32 v70,2013-03-12 12:45:00,
2013-03-12 05:50:00,43.8,43.8,30.15,South,184,0.0,0.0,100,0.00,,,0.00,0001,Weather View 32 v70,2013-03-12 12:50:00,
2013-03-12 05:55:00,43.7,43.7,30.15,South,184,0.0,0.0,100,0.00,,,0.00,0001,Weather View 32 v70,2013-03-12 12:55:00,
2013-03-12 06:00:00,43.7,43.7,30.16,South,184,0.0,0.0,100,0.00,,,0.00,0001,Weather View 32 v70,2013-03-12 13:00:00,
2013-03-12 06:10:00,43.6,43.6,30.16,SSW,207,0.0,0.0,100,0.00,,,0.00,0002,Weather View 32 v70,2013-03-12 13:10:00,
2013-03-12 06:15:00,43.6,43.6,30.16,West,274,0.0,0.0,100,0.00,,,0.00,0002,Weather View 32 v70,2013-03-12 13:15:00,
2013-03-12 06:20:00,43.5,43.5,30.15,SW,229,0.0,0.0,100,0.00,,,0.00,0001,Weather View 32 v70,2013-03-12 13:20:00,
2013-03-12 06:25:00,43.5,43.5,30.15,SW,229,0.0,0.0,100,0.00,,,0.00,0002,Weather View 32 v70,2013-03-12 13:25:00,
2013-03-12 06:30:00,43.4,43.4,30.15,SW,229,0.0,0.0,100,0.00,,,0.00,0002,Weather View 32 v70,2013-03-12 13:30:00,
2013-03-12 06:35:00,43.3,43.3,30.15,SW,229,0.0,0.0,100,0.00,,,0.00,0001,Weather View 32 v70,2013-03-12 13:35:00,
2013-03-12 06:40:00,43.2,43.2,30.15,SW,229,0.0,0.0,100,0.00,,,0.00,0001,Weather View 32 v70,2013-03-12 13:40:00,
2013-03-12 06:45:00,43.0,43.0,30.16,SW,229,0.0,0.0,100,0.00,,,0.00,0002,Weather View 32 v70,2013-03-12 13:45:00,
2013-03-12 06:50:00,42.8,42.8,30.16,SW,229,0.0,0.0,100,0.00,,,0.00,0002,Weather View 32 v70,2013-03-12 13:50:00,
2013-03-12 06:55:00,42.9,42.9,30.16,SSE,162,0.0,0.0,100,0.00,,,0.00,0002,Weather View 32 v70,2013-03-12 13:55:00,
2013-03-12 07:00:00,42.9,42.9,30.16,SSE,162,0.0,0.0,100,0.00,,,0.00,0002,Weather View 32 v70,2013-03-12 14:00:00,
2013-03-12 07:05:00,42.9,42.9,30.16,SSE,162,0.0,0.0,100,0.00,,,0.00,0002,Weather View 32 v70,2013-03-12 14:05:00,
2013-03-12 07:10:00,43.0,43.0,30.16,SSE,162,0.0,0.0,100,0.00,,,0.00,0002,Weather View 32 v70,2013-03-12 14:10:00,
2013-03-12 07:20:00,43.2,43.2,30.16,South,184,0.0,0.0,100,0.00,,,0.00,0005,Weather View 32 v70,2013-03-12 14:20:00,
2013-03-12 07:25:00,43.1,43.1,30.16,South,184,0.0,0.0,100,0.00,,,0.00,0008,Weather View 32 v70,2013-03-12 14:25:00,
2013-03-12 07:30:00,43.1,43.1,30.16,SSE,162,0.0,0.0,100,0.00,,,0.00,0020,Weather View 32 v70,2013-03-12 14:30:00,
2013-03-12 07:35:00,43.1,43.1,30.16,SSE,162,0.0,0.0,100,0.00,,,0.00,0033,Weather View 32 v70,2013-03-12 14:35:00,
2013-03-12 07:45:00,43.4,43.4,30.17,SSE,162,0.0,0.0,100,0.00,,,0.00,0069,Weather View 32 v70,2013-03-12 14:45:00,
2013-03-12 07:50:00,43.7,43.7,30.17,NW,319,0.0,1.0,100,0.00,,,0.00,0086,Weather View 32 v70,2013-03-12 14:50:00,
2013-03-12 07:55:00,44.2,44.2,30.17,NE,49,0.0,1.0,100,0.00,,,0.00,0102,Weather View 32 v70,2013-03-12 14:55:00,
2013-03-12 08:00:00,44.8,44.8,30.18,East,94,0.0,1.0,100,0.00,,,0.00,0118,Weather View 32 v70,2013-03-12 15:00:00,
2013-03-12 08:05:00,45.4,45.4,30.18,East,94,0.0,1.0,100,0.00,,,0.00,0133,Weather View 32 v70,2013-03-12 15:05:00,
2013-03-12 08:10:00,46.1,46.1,30.18,East,94,0.0,1.0,100,0.00,,,0.00,0148,Weather View 32 v70,2013-03-12 15:10:00,
2013-03-12 08:20:00,47.4,47.4,30.18,East,94,0.0,1.0,100,0.00,,,0.00,0178,Weather View 32 v70,2013-03-12 15:20:00,
2013-03-12 08:25:00,48.0,48.0,30.18,East,94,0.0,1.0,100,0.00,,,0.00,0192,Weather View 32 v70,2013-03-12 15:25:00,
2013-03-12 08:30:00,48.7,48.7,30.18,East,94,0.0,1.0,100,0.00,,,0.00,0207,Weather View 32 v70,2013-03-12 15:30:00,
2013-03-12 08:40:00,49.1,49.1,30.18,ESE,117,1.0,2.0,100,0.00,,,0.00,0234,Weather View 32 v70,2013-03-12 15:40:00,
2013-03-12 08:45:00,49.6,49.6,30.18,ESE,117,1.0,2.0,100,0.00,,,0.00,0247,Weather View 32 v70,2013-03-12 15:45:00,
2013-03-12 08:50:00,49.6,49.6,30.18,SE,139,2.0,3.0,100,0.00,,,0.00,0260,Weather View 32 v70,2013-03-12 15:50:00,
2013-03-12 08:55:00,49.8,49.8,30.19,ESE,117,1.0,3.0,100,0.00,,,0.00,0274,Weather View 32 v70,2013-03-12 15:55:00,
2013-03-12 09:00:00,50.5,50.5,30.19,East,94,1.0,3.0,100,0.00,,,0.00,0286,Weather View 32 v70,2013-03-12 16:00:00,
2013-03-12 09:05:00,50.9,50.9,30.19,ESE,117,2.0,3.0,100,0.00,,,0.00,0299,Weather View 32 v70,2013-03-12 16:05:00,
2013-03-12 09:10:00,51.2,51.2,30.19,SSE,162,0.0,3.0,100,0.00,,,0.00,0312,Weather View 32 v70,2013-03-12 16:10:00,
2013-03-12 09:15:00,51.6,51.6,30.19,ENE,72,1.0,3.0,100,0.00,,,0.00,0324,Weather View 32 v70,2013-03-12 16:15:00,
2013-03-12 09:20:00,52.2,52.2,30.19,ENE,72,1.0,3.0,100,0.00,,,0.00,0337,Weather View 32 v70,2013-03-12 16:20:00,
2013-03-12 09:25:00,52.5,52.5,30.19,ENE,72,2.0,4.0,100,0.00,,,0.00,0349,Weather View 32 v70,2013-03-12 16:25:00,
2013-03-12 09:33:00,53.0,53.0,30.19,ENE,72,1.0,4.0,100,0.00,,,0.00,0361,Weather View 32 v70,2013-03-12 16:33:00,
2013-03-12 09:40:00,54.6,54.6,30.19,East,94,1.0,4.0,100,0.00,,,0.00,0385,Weather View 32 v70,2013-03-12 16:40:00,
2013-03-12 09:45:00,54.9,54.9,30.19,ENE,72,1.0,4.0,100,0.00,,,0.00,0397,Weather View 32 v70,2013-03-12 16:45:00,
2013-03-12 09:50:00,55.3,54.7,30.19,ESE,117,1.0,4.0,98,0.00,,,0.00,0409,Weather View 32 v70,2013-03-12 16:50:00,
2013-03-12 09:55:00,54.8,53.7,30.19,NW,319,1.0,4.0,96,0.00,,,0.00,0420,Weather View 32 v70,2013-03-12 16:55:00,
2013-03-12 10:00:00,55.5,54.4,30.19,ESE,117,1.0,4.0,96,0.00,,,0.00,0432,Weather View 32 v70,2013-03-12 17:00:00,
2013-03-12 10:05:00,55.5,54.1,30.19,SSE,162,0.0,4.0,95,0.00,,,0.00,0443,Weather View 32 v70,2013-03-12 17:05:00,
2013-03-12 10:10:00,56.9,55.5,30.19,SSE,162,0.0,4.0,95,0.00,,,0.00,0455,Weather View 32 v70,2013-03-12 17:10:00,
2013-03-12 10:15:00,56.9,54.6,30.19,NNW,342,1.0,4.0,92,0.00,,,0.00,0465,Weather View 32 v70,2013-03-12 17:15:00,
2013-03-12 10:20:00,56.2,53.6,30.19,NW,319,1.0,4.0,91,0.00,,,0.00,0476,Weather View 32 v70,2013-03-12 17:20:00,
2013-03-12 10:25:00,56.8,54.2,30.19,NW,319,2.0,4.0,91,0.00,,,0.00,0486,Weather View 32 v70,2013-03-12 17:25:00,
2013-03-12 10:30:00,57.9,55.0,30.19,SSW,207,1.0,4.0,90,0.00,,,0.00,0497,Weather View 32 v70,2013-03-12 17:30:00,
2013-03-12 10:40:00,58.3,54.4,30.19,NNW,342,2.0,4.0,87,0.00,,,0.00,0518,Weather View 32 v70,2013-03-12 17:40:00,
2013-03-12 10:45:00,59.0,54.8,30.19,ENE,72,1.0,4.0,86,0.00,,,0.00,0530,Weather View 32 v70,2013-03-12 17:45:00,
2013-03-12 10:50:00,60.1,55.6,30.19,SE,139,0.0,4.0,85,0.00,,,0.00,0540,Weather View 32 v70,2013-03-12 17:50:00,
2013-03-12 10:55:00,60.8,55.9,30.19,SE,139,3.0,4.0,84,0.00,,,0.00,0550,Weather View 32 v70,2013-03-12 17:55:00,
2013-03-12 11:00:00,61.0,55.5,30.18,SE,139,0.0,4.0,82,0.00,,,0.00,0559,Weather View 32 v70,2013-03-12 18:00:00,
2013-03-12 11:05:00,61.3,55.1,30.18,ESE,117,3.0,5.0,80,0.00,,,0.00,0568,Weather View 32 v70,2013-03-12 18:05:00,
2013-03-12 11:15:00,62.7,55.7,30.18,SE,139,3.0,5.0,78,0.00,,,0.00,0587,Weather View 32 v70,2013-03-12 18:15:00,
2013-03-12 11:20:00,62.4,54.3,30.18,SE,139,3.0,5.0,75,0.00,,,0.00,0595,Weather View 32 v70,2013-03-12 18:20:00,
2013-03-12 11:25:00,62.6,54.2,30.18,ESE,117,3.0,5.0,74,0.00,,,0.00,0605,Weather View 32 v70,2013-03-12 18:25:00,
2013-03-12 11:30:00,62.9,54.1,30.18,SE,139,1.0,5.0,73,0.00,,,0.00,0612,Weather View 32 v70,2013-03-12 18:30:00,
2013-03-12 11:35:00,64.1,54.9,30.17,SE,139,2.0,5.0,72,0.00,,,0.00,0622,Weather View 32 v70,2013-03-12 18:35:00,
2013-03-12 11:45:00,64.8,52.7,30.18,ESE,117,3.0,5.0,65,0.00,,,0.00,0635,Weather View 32 v70,2013-03-12 18:45:00,
2013-03-12 11:50:00,65.8,52.8,30.18,SSE,162,1.0,5.0,63,0.00,,,0.00,0642,Weather View 32 v70,2013-03-12 18:50:00,
2013-03-12 11:55:00,65.5,52.1,30.18,NNW,342,1.0,5.0,62,0.00,,,0.00,0648,Weather View 32 v70,2013-03-12 18:55:00,
2013-03-12 12:00:00,65.9,52.5,30.18,ENE,72,4.0,5.0,62,0.00,,,0.00,0655,Weather View 32 v70,2013-03-12 19:00:00,
2013-03-12 12:05:00,65.4,52.0,30.17,ENE,72,3.0,6.0,62,0.00,,,0.00,0659,Weather View 32 v70,2013-03-12 19:05:00,
2013-03-12 12:10:00,66.4,52.9,30.17,ESE,117,1.0,6.0,62,0.00,,,0.00,0665,Weather View 32 v70,2013-03-12 19:10:00,
2013-03-12 12:15:00,66.9,53.0,30.17,SSE,162,1.0,6.0,61,0.00,,,0.00,0669,Weather View 32 v70,2013-03-12 19:15:00,
2013-03-12 12:20:00,67.4,53.0,30.17,ENE,72,3.0,6.0,60,0.00,,,0.00,0673,Weather View 32 v70,2013-03-12 19:20:00,
2013-03-12 12:25:00,68.1,53.7,30.17,West,274,0.0,6.0,60,0.00,,,0.00,0678,Weather View 32 v70,2013-03-12 19:25:00,
2013-03-12 12:30:00,69.0,54.5,30.16,NW,319,3.0,6.0,60,0.00,,,0.00,0682,Weather View 32 v70,2013-03-12 19:30:00,
2013-03-12 12:35:00,69.8,54.8,30.16,South,184,1.0,6.0,59,0.00,,,0.00,0685,Weather View 32 v70,2013-03-12 19:35:00,
2013-03-12 12:45:00,69.6,53.6,30.16,North,4,2.0,6.0,57,0.00,,,0.00,0690,Weather View 32 v70,2013-03-12 19:45:00,
2013-03-12 12:55:00,70.2,54.2,30.16,SE,139,1.0,6.0,57,0.00,,,0.00,0693,Weather View 32 v70,2013-03-12 19:55:00,
2013-03-12 13:00:00,70.6,54.6,30.15,East,94,2.0,6.0,57,0.00,,,0.00,0697,Weather View 32 v70,2013-03-12 20:00:00,
2013-03-12 13:05:00,70.9,54.4,30.15,East,94,4.0,6.0,56,0.00,,,0.00,0697,Weather View 32 v70,2013-03-12 20:05:00,
2013-03-12 13:10:00,70.5,54.0,30.15,ESE,117,2.0,6.0,56,0.00,,,0.00,0698,Weather View 32 v70,2013-03-12 20:10:00,
2013-03-12 13:15:00,71.0,54.0,30.15,South,184,1.0,6.0,55,0.00,,,0.00,0699,Weather View 32 v70,2013-03-12 20:15:00,
2013-03-12 13:20:00,70.7,53.7,30.15,North,4,2.0,6.0,55,0.00,,,0.00,0699,Weather View 32 v70,2013-03-12 20:20:00,
2013-03-12 13:25:00,71.2,54.7,30.14,North,4,3.0,6.0,56,0.00,,,0.00,0699,Weather View 32 v70,2013-03-12 20:25:00,
2013-03-12 13:30:00,71.4,54.8,30.14,SE,139,1.0,6.0,56,0.00,,,0.00,0698,Weather View 32 v70,2013-03-12 20:30:00,
2013-03-12 13:35:00,72.0,55.9,30.14,SE,139,2.0,6.0,57,0.00,,,0.00,0696,Weather View 32 v70,2013-03-12 20:35:00,
2013-03-12 13:40:00,72.7,56.0,30.14,ENE,72,1.0,6.0,56,0.00,,,0.00,0693,Weather View 32 v70,2013-03-12 20:40:00,
2013-03-12 13:45:00,73.0,56.3,30.14,NNE,27,4.0,6.0,56,0.00,,,0.00,0692,Weather View 32 v70,2013-03-12 20:45:00,
2013-03-12 13:55:00,72.4,55.8,30.13,North,4,3.0,6.0,56,0.00,,,0.00,0686,Weather View 32 v70,2013-03-12 20:55:00,
2013-03-12 14:00:00,72.7,56.0,30.13,NNE,27,3.0,6.0,56,0.00,,,0.00,0687,Weather View 32 v70,2013-03-12 21:00:00,
2013-03-12 14:05:00,72.7,55.5,30.13,WSW,252,2.0,6.0,55,0.00,,,0.00,0681,Weather View 32 v70,2013-03-12 21:05:00,
2013-03-12 14:15:00,73.3,55.1,30.12,ESE,117,1.0,7.0,53,0.00,,,0.00,0677,Weather View 32 v70,2013-03-12 21:15:00,
2013-03-12 14:20:00,72.8,54.6,30.12,WNW,297,3.0,7.0,53,0.00,,,0.00,0672,Weather View 32 v70,2013-03-12 21:20:00,
2013-03-12 14:30:00,74.3,56.5,30.11,ESE,117,1.0,7.0,54,0.00,,,0.00,0665,Weather View 32 v70,2013-03-12 21:30:00,
2013-03-12 14:35:00,74.6,57.3,30.11,NE,49,3.0,7.0,55,0.00,,,0.00,0659,Weather View 32 v70,2013-03-12 21:35:00,
2013-03-12 14:40:00,75.1,57.8,30.11,South,184,3.0,7.0,55,0.00,,,0.00,0654,Weather View 32 v70,2013-03-12 21:40:00,
2013-03-12 14:50:00,74.4,56.1,30.11,NW,319,1.0,10.0,53,0.00,,,0.00,0642,Weather View 32 v70,2013-03-12 21:50:00,
2013-03-12 14:55:00,73.9,56.2,30.10,ESE,117,3.0,10.0,54,0.00,,,0.00,0635,Weather View 32 v70,2013-03-12 21:55:00,
2013-03-12 15:00:00,74.3,57.0,30.10,ENE,72,4.0,10.0,55,0.00,,,0.00,0628,Weather View 32 v70,2013-03-12 22:00:00,
2013-03-12 15:05:00,74.5,57.2,30.10,ESE,117,4.0,10.0,55,0.00,,,0.00,0619,Weather View 32 v70,2013-03-12 22:05:00,
2013-03-12 15:10:00,73.8,56.6,30.10,SE,139,4.0,10.0,55,0.00,,,0.00,0612,Weather View 32 v70,2013-03-12 22:10:00,
2013-03-12 15:15:00,74.1,56.3,30.10,ESE,117,3.0,10.0,54,0.00,,,0.00,0608,Weather View 32 v70,2013-03-12 22:15:00,
2013-03-12 15:20:00,75.0,57.7,30.10,SSE,162,3.0,10.0,55,0.00,,,0.00,0600,Weather View 32 v70,2013-03-12 22:20:00,
2013-03-12 15:25:00,75.1,57.3,30.10,ESE,117,3.0,10.0,54,0.00,,,0.00,0590,Weather View 32 v70,2013-03-12 22:25:00,
2013-03-12 15:30:00,74.6,56.8,30.10,ESE,117,4.0,10.0,54,0.00,,,0.00,0581,Weather View 32 v70,2013-03-12 22:30:00,
2013-03-12 15:35:00,74.7,56.9,30.10,ESE,117,4.0,10.0,54,0.00,,,0.00,0572,Weather View 32 v70,2013-03-12 22:35:00,
2013-03-12 15:45:00,75.1,56.7,30.09,NE,49,2.0,10.0,53,0.00,,,0.00,0550,Weather View 32 v70,2013-03-12 22:45:00,
2013-03-12 15:50:00,75.5,57.6,30.09,ENE,72,3.0,8.0,54,0.00,,,0.00,0539,Weather View 32 v70,2013-03-12 22:50:00,
2013-03-12 15:55:00,75.3,56.9,30.09,ESE,117,3.0,8.0,53,0.00,,,0.00,0531,Weather View 32 v70,2013-03-12 22:55:00,
2013-03-12 16:00:00,75.4,58.1,30.09,SE,139,3.0,8.0,55,0.00,,,0.00,0521,Weather View 32 v70,2013-03-12 23:00:00,
2013-03-12 16:05:00,75.2,57.4,30.08,SSE,162,4.0,8.0,54,0.00,,,0.00,0509,Weather View 32 v70,2013-03-12 23:05:00,
2013-03-12 16:10:00,75.4,57.5,30.08,SSW,207,4.0,7.0,54,0.00,,,0.00,0500,Weather View 32 v70,2013-03-12 23:10:00,
2013-03-12 16:20:00,76.4,57.4,30.08,SSW,207,1.0,7.0,52,0.00,,,0.00,0479,Weather View 32 v70,2013-03-12 23:20:00,
2013-03-12 16:30:00,77.3,57.7,30.08,ESE,117,3.0,7.0,51,0.00,,,0.00,0457,Weather View 32 v70,2013-03-12 23:30:00,
2013-03-12 16:38:00,77.1,57.5,30.08,SSE,162,1.0,7.0,51,0.00,,,0.00,0444,Weather View 32 v70,2013-03-12 23:38:00,
2013-03-12 16:45:00,76.1,58.2,30.08,WSW,252,3.0,7.0,54,0.00,,,0.00,0422,Weather View 32 v70,2013-03-12 23:45:00,
2013-03-12 16:55:00,76.2,57.2,30.08,SSW,207,1.0,7.0,52,0.00,,,0.00,0397,Weather View 32 v70,2013-03-12 23:55:00,
2013-03-12 17:00:00,76.5,57.5,30.08,SSW,207,2.0,6.0,52,0.00,,,0.00,0383,Weather View 32 v70,2013-03-13 00:00:00,
2013-03-12 17:05:00,76.8,57.8,30.08,NNW,342,3.0,6.0,52,0.00,,,0.00,0370,Weather View 32 v70,2013-03-13 00:05:00,
2013-03-12 17:10:00,76.2,59.3,30.08,West,274,1.0,7.0,56,0.00,,,0.00,0354,Weather View 32 v70,2013-03-13 00:10:00,
2013-03-12 17:15:00,75.1,59.3,30.08,NW,319,5.0,7.0,58,0.00,,,0.00,0340,Weather View 32 v70,2013-03-13 00:15:00,
2013-03-12 17:25:00,74.9,60.0,30.08,NW,319,4.0,8.0,60,0.00,,,0.00,0312,Weather View 32 v70,2013-03-13 00:25:00,
2013-03-12 17:30:00,75.0,60.6,30.08,West,274,3.0,8.0,61,0.00,,,0.00,0298,Weather View 32 v70,2013-03-13 00:30:00,
2013-03-12 17:35:00,74.5,60.1,30.08,West,274,6.0,8.0,61,0.00,,,0.00,0285,Weather View 32 v70,2013-03-13 00:35:00,
2013-03-12 17:45:00,74.5,60.6,30.08,West,274,3.0,8.0,62,0.00,,,0.00,0259,Weather View 32 v70,2013-03-13 00:45:00,
2013-03-12 17:50:00,74.5,61.0,30.08,SW,229,3.0,8.0,63,0.00,,,0.00,0244,Weather View 32 v70,2013-03-13 00:50:00,
2013-03-12 17:55:00,73.8,60.4,30.08,WSW,252,3.0,8.0,63,0.00,,,0.00,0230,Weather View 32 v70,2013-03-13 00:55:00,
2013-03-12 18:00:00,73.0,60.5,30.08,WNW,297,2.0,8.0,65,0.00,,,0.00,0217,Weather View 32 v70,2013-03-13 01:00:00,
2013-03-12 18:10:00,72.2,60.2,30.08,WSW,252,3.0,8.0,66,0.00,,,0.00,0040,Weather View 32 v70,2013-03-13 01:10:00,
2013-03-12 18:15:00,71.4,59.8,30.08,WNW,297,3.0,8.0,67,0.00,,,0.00,0037,Weather View 32 v70,2013-03-13 01:15:00,
2013-03-12 18:25:00,70.7,60.0,30.08,WSW,252,3.0,8.0,69,0.00,,,0.00,0033,Weather View 32 v70,2013-03-13 01:25:00,
2013-03-12 18:35:00,70.2,59.9,30.09,SSW,207,4.0,8.0,70,0.00,,,0.00,0028,Weather View 32 v70,2013-03-13 01:35:00,
2013-03-12 18:40:00,70.3,59.6,30.09,SW,229,4.0,7.0,69,0.00,,,0.00,0026,Weather View 32 v70,2013-03-13 01:40:00,
2013-03-12 18:50:00,69.4,59.6,30.09,East,94,2.0,7.0,71,0.00,,,0.00,0021,Weather View 32 v70,2013-03-13 01:50:00,
2013-03-12 18:55:00,69.3,59.9,30.09,SSW,207,0.0,7.0,72,0.00,,,0.00,0018,Weather View 32 v70,2013-03-13 01:55:00,
2013-03-12 19:05:00,68.0,59.0,30.09,South,184,0.0,7.0,73,0.00,,,0.00,0011,Weather View 32 v70,2013-03-13 02:05:00,
2013-03-12 19:15:00,67.0,58.4,30.10,SSW,207,1.0,7.0,74,0.00,,,0.00,0007,Weather View 32 v70,2013-03-13 02:15:00,
2013-03-12 19:20:00,65.8,58.0,30.10,WSW,252,1.0,7.0,76,0.00,,,0.00,0004,Weather View 32 v70,2013-03-13 02:20:00,
2013-03-12 19:25:00,65.1,57.7,30.10,WSW,252,1.0,7.0,77,0.00,,,0.00,0002,Weather View 32 v70,2013-03-13 02:25:00,
2013-03-12 19:30:00,64.8,57.4,30.10,West,274,1.0,7.0,77,0.00,,,0.00,0002,Weather View 32 v70,2013-03-13 02:30:00,
2013-03-12 19:35:00,64.3,57.3,30.10,West,274,1.0,7.0,78,0.00,,,0.00,0002,Weather View 32 v70,2013-03-13 02:35:00,
2013-03-12 19:40:00,64.1,57.1,30.10,West,274,3.0,6.0,78,0.00,,,0.00,0002,Weather View 32 v70,2013-03-13 02:40:00,
2013-03-12 19:45:00,63.9,56.9,30.11,SSW,207,2.0,4.0,78,0.00,,,0.00,0002,Weather View 32 v70,2013-03-13 02:45:00,
2013-03-12 19:50:00,63.7,57.0,30.11,SSE,162,0.0,3.0,79,0.00,,,0.00,0001,Weather View 32 v70,2013-03-13 02:50:00,
2013-03-12 19:55:00,63.2,56.6,30.10,WSW,252,2.0,3.0,79,0.00,,,0.00,0001,Weather View 32 v70,2013-03-13 02:55:00,
2013-03-12 20:00:00,63.0,56.7,30.11,SW,229,1.0,3.0,80,0.00,,,0.00,0002,Weather View 32 v70,2013-03-13 03:00:00,
2013-03-12 20:10:00,62.3,57.1,30.11,SSW,207,0.0,3.0,83,0.00,,,0.00,0001,Weather View 32 v70,2013-03-13 03:10:00,
2013-03-12 20:20:00,61.6,57.0,30.12,SSW,207,1.0,3.0,85,0.00,,,0.00,0001,Weather View 32 v70,2013-03-13 03:20:00,
2013-03-12 20:25:00,61.4,57.2,30.12,SSW,207,1.0,3.0,86,0.00,,,0.00,0001,Weather View 32 v70,2013-03-13 03:25:00,
2013-03-12 20:30:00,61.1,57.2,30.12,SSW,207,0.0,3.0,87,0.00,,,0.00,0002,Weather View 32 v70,2013-03-13 03:30:00,
2013-03-12 20:35:00,60.9,57.3,30.12,WSW,252,1.0,3.0,88,0.00,,,0.00,0001,Weather View 32 v70,2013-03-13 03:35:00,
2013-03-12 20:40:00,60.7,57.4,30.12,SSW,207,0.0,3.0,89,0.00,,,0.00,0001,Weather View 32 v70,2013-03-13 03:40:00,
2013-03-12 20:45:00,60.4,57.1,30.12,SSW,207,0.0,3.0,89,0.00,,,0.00,0001,Weather View 32 v70,2013-03-13 03:45:00,
2013-03-12 20:50:00,60.0,57.0,30.12,SSW,207,0.0,3.0,90,0.00,,,0.00,0001,Weather View 32 v70,2013-03-13 03:50:00,
2013-03-12 21:00:00,59.3,56.4,30.12,West,274,0.0,3.0,90,0.00,,,0.00,0001,Weather View 32 v70,2013-03-13 04:00:00,
2013-03-12 21:05:00,59.1,56.5,30.13,SW,229,0.0,3.0,91,0.00,,,0.00,0002,Weather View 32 v70,2013-03-13 04:05:00,
2013-03-12 21:10:00,58.9,56.3,30.13,SSW,207,0.0,3.0,91,0.00,,,0.00,0002,Weather View 32 v70,2013-03-13 04:10:00,
2013-03-12 21:15:00,58.7,56.1,30.13,SSW,207,0.0,2.0,91,0.00,,,0.00,0002,Weather View 32 v70,2013-03-13 04:15:00,
2013-03-12 21:20:00,58.4,55.8,30.13,SSW,207,0.0,1.0,91,0.00,,,0.00,0002,Weather View 32 v70,2013-03-13 04:20:00,
2013-03-12 21:25:00,58.1,55.8,30.13,SSW,207,0.0,1.0,92,0.00,,,0.00,0001,Weather View 32 v70,2013-03-13 04:25:00,
2013-03-12 21:35:00,57.7,55.7,30.13,WNW,297,2.0,2.0,93,0.00,,,0.00,0002,Weather View 32 v70,2013-03-13 04:35:00,
2013-03-12 21:40:00,57.9,55.9,30.13,West,274,1.0,3.0,93,0.00,,,0.00,0001,Weather View 32 v70,2013-03-13 04:40:00,
2013-03-12 21:45:00,57.6,55.6,30.13,ESE,117,0.0,3.0,93,0.00,,,0.00,0002,Weather View 32 v70,2013-03-13 04:45:00,
2013-03-12 21:50:00,57.4,55.7,30.13,South,184,0.0,3.0,94,0.00,,,0.00,0002,Weather View 32 v70,2013-03-13 04:50:00,
2013-03-12 21:55:00,57.2,55.5,30.13,SW,229,0.0,3.0,94,0.00,,,0.00,0002,Weather View 32 v70,2013-03-13 04:55:00,
2013-03-12 22:00:00,57.0,55.6,30.13,SSW,207,0.0,3.0,95,0.00,,,0.00,0002,Weather View 32 v70,2013-03-13 05:00:00,
2013-03-12 22:05:00,56.8,55.4,30.13,South,184,0.0,3.0,95,0.00,,,0.00,0002,Weather View 32 v70,2013-03-13 05:05:00,
2013-03-12 22:10:00,56.5,55.4,30.14,South,184,0.0,3.0,96,0.00,,,0.00,0001,Weather View 32 v70,2013-03-13 05:10:00,
2013-03-12 22:15:00,56.4,55.6,30.14,SSE,162,0.0,3.0,97,0.00,,,0.00,0002,Weather View 32 v70,2013-03-13 05:15:00,
2013-03-12 22:25:00,56.4,55.8,30.14,SW,229,0.0,3.0,98,0.00,,,0.00,0002,Weather View 32 v70,2013-03-13 05:25:00,
2013-03-12 22:30:00,56.3,56.0,30.14,West,274,0.0,3.0,99,0.00,,,0.00,0002,Weather View 32 v70,2013-03-13 05:30:00,
2013-03-12 22:35:00,55.9,55.6,30.14,NW,319,0.0,3.0,99,0.00,,,0.00,0001,Weather View 32 v70,2013-03-13 05:35:00,
2013-03-12 22:43:00,55.7,55.7,30.14,South,184,0.0,1.0,100,0.00,,,0.00,0001,Weather View 32 v70,2013-03-13 05:43:00,
2013-03-12 22:50:00,55.2,55.2,30.14,NNW,342,0.0,0.0,100,0.00,,,0.00,0001,Weather View 32 v70,2013-03-13 05:50:00,
2013-03-12 22:55:00,55.2,55.2,30.15,NNW,342,0.0,0.0,100,0.00,,,0.00,0001,Weather View 32 v70,2013-03-13 05:55:00,
2013-03-12 23:00:00,55.0,55.0,30.14,NNW,342,0.0,0.0,100,0.00,,,0.00,0001,Weather View 32 v70,2013-03-13 06:00:00,
2013-03-12 23:05:00,54.8,54.8,30.14,WSW,252,0.0,0.0,100,0.00,,,0.00,0001,Weather View 32 v70,2013-03-13 06:05:00,
2013-03-12 23:10:00,54.7,54.7,30.14,SSW,207,0.0,0.0,100,0.00,,,0.00,0001,Weather View 32 v70,2013-03-13 06:10:00,
2013-03-12 23:15:00,54.5,54.5,30.14,SSW,207,0.0,0.0,100,0.00,,,0.00,0001,Weather View 32 v70,2013-03-13 06:15:00,
2013-03-12 23:20:00,54.3,54.3,30.15,SSW,207,0.0,0.0,100,0.00,,,0.00,0001,Weather View 32 v70,2013-03-13 06:20:00,
2013-03-12 23:25:00,54.1,54.1,30.14,SSW,207,0.0,0.0,100,0.00,,,0.00,0002,Weather View 32 v70,2013-03-13 06:25:00,
2013-03-12 23:35:00,53.9,53.9,30.15,SSW,207,0.0,0.0,100,0.00,,,0.00,0001,Weather View 32 v70,2013-03-13 06:35:00,
2013-03-12 23:40:00,53.8,53.8,30.15,SSW,207,0.0,0.0,100,0.00,,,0.00,0001,Weather View 32 v70,2013-03-13 06:40:00,
2013-03-12 23:50:00,53.6,53.6,30.15,SSW,207,0.0,0.0,100,0.00,,,0.00,0002,Weather View 32 v70,2013-03-13 06:50:00,
2013-03-12 23:55:00,53.3,53.3,30.15,SSW,207,0.0,0.0,100,0.00,,,0.00,0001,Weather View 32 v70,2013-03-13 06:55:00,